Terminal Aerodrome Forecast
Issued by NWS

Home | Current Version | Previous Version | Text Only | Print | Product List | Glossary On
Versions: 1 2 3 4 5 6 7 8 9 10 11 12 13
000
FTUS41 KBTV 281943 AAA
TAFPBG
TAF AMD
KPBG 281943Z 2820/2918 00000KT P6SM VCSH BKN120
     FM290000 VRB03KT P6SM BKN100
     FM291600 36006KT P6SM SCT140=

USA.gov is the U.S. government's official web portal to all federal, state and local government web resources and services.